sensor_id;sensor_type;location;lat;lon;timestamp;P1;durP1;ratioP1;P2;durP2;ratioP2
21018;SDS011;10667;51.056;3.732;2024-02-21T00:00:14;8.52;;;3.40;;
21018;SDS011;10667;51.056;3.732;2024-02-21T00:02:41;7.15;;;3.35;;
21018;SDS011;10667;51.056;3.732;2024-02-21T00:05:06;8.10;;;3.50;;
21018;SDS011;10667;51.056;3.732;2024-02-21T00:07:32;9.23;;;3.90;;
21018;SDS011;10667;51.056;3.732;2024-02-21T00:09:58;8.73;;;3.85;;
21018;SDS011;10667;51.056;3.732;2024-02-21T00:12:23;9.77;;;3.65;;
21018;SDS011;10667;51.056;3.732;2024-02-21T00:14:49;6.70;;;3.40;;
21018;SDS011;10667;51.056;3.732;2024-02-21T00:17:15;8.48;;;3.65;;
21018;SDS011;10667;51.056;3.732;2024-02-21T00:19:40;8.73;;;3.53;;
21018;SDS011;10667;51.056;3.732;2024-02-21T00:22:06;8.55;;;3.88;;
21018;SDS011;10667;51.056;3.732;2024-02-21T00:24:31;7.18;;;4.03;;
21018;SDS011;10667;51.056;3.732;2024-02-21T00:26:57;7.68;;;3.42;;
21018;SDS011;10667;51.056;3.732;2024-02-21T00:29:23;9.48;;;3.90;;
21018;SDS011;10667;51.056;3.732;2024-02-21T00:31:49;6.65;;;4.20;;
21018;SDS011;10667;51.056;3.732;2024-02-21T00:34:15;10.15;;;4.15;;
21018;SDS011;10667;51.056;3.732;2024-02-21T00:36:40;10.50;;;5.43;;
21018;SDS011;10667;51.056;3.732;2024-02-21T00:39:06;6.10;;;4.45;;
21018;SDS011;10667;51.056;3.732;2024-02-21T00:41:32;6.35;;;4.18;;
21018;SDS011;10667;51.056;3.732;2024-02-21T00:43:58;11.40;;;4.60;;
21018;SDS011;10667;51.056;3.732;2024-02-21T00:46:23;8.70;;;4.85;;
21018;SDS011;10667;51.056;3.732;2024-02-21T00:48:49;11.93;;;5.05;;
21018;SDS011;10667;51.056;3.732;2024-02-21T00:51:15;11.40;;;6.47;;
21018;SDS011;10667;51.056;3.732;2024-02-21T00:53:42;15.68;;;6.53;;
21018;SDS011;10667;51.056;3.732;2024-02-21T00:56:08;10.90;;;6.30;;
21018;SDS011;10667;51.056;3.732;2024-02-21T00:58:34;12.80;;;6.82;;
21018;SDS011;10667;51.056;3.732;2024-02-21T01:01:02;10.98;;;6.32;;
21018;SDS011;10667;51.056;3.732;2024-02-21T01:03:28;16.02;;;7.63;;
21018;SDS011;10667;51.056;3.732;2024-02-21T01:05:54;17.65;;;7.30;;
21018;SDS011;10667;51.056;3.732;2024-02-21T01:08:19;17.33;;;7.55;;
21018;SDS011;10667;51.056;3.732;2024-02-21T01:10:45;15.48;;;7.57;;
21018;SDS011;10667;51.056;3.732;2024-02-21T01:13:11;12.30;;;6.93;;
21018;SDS011;10667;51.056;3.732;2024-02-21T01:15:36;14.45;;;7.22;;
21018;SDS011;10667;51.056;3.732;2024-02-21T01:18:02;17.40;;;7.78;;
21018;SDS011;10667;51.056;3.732;2024-02-21T01:20:28;17.00;;;7.80;;
21018;SDS011;10667;51.056;3.732;2024-02-21T01:22:53;18.00;;;7.95;;
21018;SDS011;10667;51.056;3.732;2024-02-21T01:25:19;19.20;;;7.88;;
21018;SDS011;10667;51.056;3.732;2024-02-21T01:27:44;15.55;;;8.00;;
21018;SDS011;10667;51.056;3.732;2024-02-21T01:30:10;20.60;;;7.95;;
21018;SDS011;10667;51.056;3.732;2024-02-21T01:32:36;23.30;;;8.75;;
21018;SDS011;10667;51.056;3.732;2024-02-21T01:35:02;20.45;;;7.78;;
21018;SDS011;10667;51.056;3.732;2024-02-21T01:37:28;19.42;;;7.85;;
21018;SDS011;10667;51.056;3.732;2024-02-21T01:39:54;17.35;;;7.95;;
21018;SDS011;10667;51.056;3.732;2024-02-21T01:42:19;21.55;;;7.47;;
21018;SDS011;10667;51.056;3.732;2024-02-21T01:44:46;18.40;;;7.18;;
21018;SDS011;10667;51.056;3.732;2024-02-21T01:47:12;18.50;;;7.50;;
21018;SDS011;10667;51.056;3.732;2024-02-21T01:49:40;16.33;;;7.97;;
21018;SDS011;10667;51.056;3.732;2024-02-21T01:52:06;14.40;;;7.63;;
21018;SDS011;10667;51.056;3.732;2024-02-21T01:54:32;20.48;;;7.97;;
21018;SDS011;10667;51.056;3.732;2024-02-21T01:56:58;15.63;;;7.30;;
21018;SDS011;10667;51.056;3.732;2024-02-21T01:59:24;17.10;;;7.85;;
21018;SDS011;10667;51.056;3.732;2024-02-21T02:01:50;23.38;;;7.85;;
21018;SDS011;10667;51.056;3.732;2024-02-21T02:04:17;19.25;;;7.32;;
21018;SDS011;10667;51.056;3.732;2024-02-21T02:06:44;19.10;;;7.57;;
21018;SDS011;10667;51.056;3.732;2024-02-21T02:09:09;21.17;;;6.97;;
21018;SDS011;10667;51.056;3.732;2024-02-21T02:11:35;19.52;;;7.18;;
21018;SDS011;10667;51.056;3.732;2024-02-21T02:14:01;19.15;;;8.13;;
21018;SDS011;10667;51.056;3.732;2024-02-21T02:16:26;27.38;;;7.43;;
21018;SDS011;10667;51.056;3.732;2024-02-21T02:18:52;16.38;;;7.18;;
21018;SDS011;10667;51.056;3.732;2024-02-21T02:21:28;22.50;;;7.50;;
21018;SDS011;10667;51.056;3.732;2024-02-21T02:23:56;19.27;;;7.25;;
21018;SDS011;10667;51.056;3.732;2024-02-21T02:26:22;20.85;;;7.35;;
21018;SDS011;10667;51.056;3.732;2024-02-21T02:28:47;19.38;;;7.28;;
21018;SDS011;10667;51.056;3.732;2024-02-21T02:31:13;26.92;;;8.65;;
21018;SDS011;10667;51.056;3.732;2024-02-21T02:33:39;23.60;;;7.63;;
21018;SDS011;10667;51.056;3.732;2024-02-21T02:36:04;17.88;;;7.00;;
21018;SDS011;10667;51.056;3.732;2024-02-21T02:38:30;22.00;;;7.63;;
21018;SDS011;10667;51.056;3.732;2024-02-21T02:40:56;19.50;;;7.65;;
21018;SDS011;10667;51.056;3.732;2024-02-21T02:43:21;17.90;;;7.85;;
21018;SDS011;10667;51.056;3.732;2024-02-21T02:45:47;19.60;;;7.40;;
21018;SDS011;10667;51.056;3.732;2024-02-21T02:48:13;25.77;;;7.80;;
21018;SDS011;10667;51.056;3.732;2024-02-21T02:50:38;27.25;;;7.43;;
21018;SDS011;10667;51.056;3.732;2024-02-21T02:53:04;26.50;;;7.95;;
21018;SDS011;10667;51.056;3.732;2024-02-21T02:55:30;18.05;;;7.55;;
21018;SDS011;10667;51.056;3.732;2024-02-21T02:57:55;21.60;;;8.10;;
21018;SDS011;10667;51.056;3.732;2024-02-21T03:00:21;16.75;;;7.57;;
21018;SDS011;10667;51.056;3.732;2024-02-21T03:02:48;24.00;;;8.45;;
21018;SDS011;10667;51.056;3.732;2024-02-21T03:05:15;27.45;;;8.18;;
21018;SDS011;10667;51.056;3.732;2024-02-21T03:07:45;27.95;;;7.80;;
21018;SDS011;10667;51.056;3.732;2024-02-21T03:10:11;26.63;;;8.52;;
21018;SDS011;10667;51.056;3.732;2024-02-21T03:12:38;22.75;;;7.95;;
21018;SDS011;10667;51.056;3.732;2024-02-21T03:15:04;22.75;;;8.77;;
21018;SDS011;10667;51.056;3.732;2024-02-21T03:17:31;31.42;;;10.63;;
21018;SDS011;10667;51.056;3.732;2024-02-21T03:19:59;23.50;;;9.13;;
21018;SDS011;10667;51.056;3.732;2024-02-21T03:22:25;20.23;;;8.00;;
21018;SDS011;10667;51.056;3.732;2024-02-21T03:24:50;22.10;;;9.73;;
21018;SDS011;10667;51.056;3.732;2024-02-21T03:27:16;24.35;;;8.40;;
21018;SDS011;10667;51.056;3.732;2024-02-21T03:29:42;23.30;;;8.18;;
21018;SDS011;10667;51.056;3.732;2024-02-21T03:32:07;23.85;;;8.43;;
21018;SDS011;10667;51.056;3.732;2024-02-21T03:34:33;23.30;;;8.55;;
21018;SDS011;10667;51.056;3.732;2024-02-21T03:36:59;22.67;;;9.38;;
21018;SDS011;10667;51.056;3.732;2024-02-21T03:39:25;21.23;;;8.30;;
21018;SDS011;10667;51.056;3.732;2024-02-21T03:41:50;25.13;;;9.18;;
21018;SDS011;10667;51.056;3.732;2024-02-21T03:44:16;27.00;;;9.38;;
21018;SDS011;10667;51.056;3.732;2024-02-21T03:46:42;20.38;;;8.05;;
21018;SDS011;10667;51.056;3.732;2024-02-21T03:49:08;23.70;;;9.43;;
21018;SDS011;10667;51.056;3.732;2024-02-21T03:51:36;21.70;;;9.07;;
21018;SDS011;10667;51.056;3.732;2024-02-21T03:54:02;20.35;;;8.35;;
21018;SDS011;10667;51.056;3.732;2024-02-21T03:56:28;21.10;;;9.00;;
21018;SDS011;10667;51.056;3.732;2024-02-21T03:58:53;28.00;;;9.40;;
21018;SDS011;10667;51.056;3.732;2024-02-21T04:01:19;19.30;;;9.02;;
21018;SDS011;10667;51.056;3.732;2024-02-21T04:03:44;21.65;;;9.38;;
21018;SDS011;10667;51.056;3.732;2024-02-21T04:06:10;22.23;;;9.35;;
21018;SDS011;10667;51.056;3.732;2024-02-21T04:08:36;22.10;;;9.10;;
21018;SDS011;10667;51.056;3.732;2024-02-21T04:11:01;24.85;;;9.82;;
21018;SDS011;10667;51.056;3.732;2024-02-21T04:13:27;24.77;;;9.20;;
21018;SDS011;10667;51.056;3.732;2024-02-21T04:15:53;20.55;;;9.25;;
21018;SDS011;10667;51.056;3.732;2024-02-21T04:18:18;28.48;;;10.07;;
21018;SDS011;10667;51.056;3.732;2024-02-21T04:20:44;20.80;;;9.52;;
21018;SDS011;10667;51.056;3.732;2024-02-21T04:23:10;26.02;;;10.25;;
21018;SDS011;10667;51.056;3.732;2024-02-21T04:25:36;25.52;;;10.75;;
21018;SDS011;10667;51.056;3.732;2024-02-21T04:28:01;19.45;;;9.02;;
21018;SDS011;10667;51.056;3.732;2024-02-21T04:30:27;20.77;;;10.25;;
21018;SDS011;10667;51.056;3.732;2024-02-21T04:32:53;22.75;;;10.40;;
21018;SDS011;10667;51.056;3.732;2024-02-21T04:35:19;31.45;;;11.85;;
21018;SDS011;10667;51.056;3.732;2024-02-21T04:37:45;27.20;;;10.40;;
21018;SDS011;10667;51.056;3.732;2024-02-21T04:40:10;24.48;;;11.15;;
21018;SDS011;10667;51.056;3.732;2024-02-21T04:42:36;26.50;;;11.55;;
21018;SDS011;10667;51.056;3.732;2024-02-21T04:45:02;24.83;;;10.27;;
21018;SDS011;10667;51.056;3.732;2024-02-21T04:47:28;23.67;;;10.23;;
21018;SDS011;10667;51.056;3.732;2024-02-21T04:49:54;28.05;;;9.68;;
21018;SDS011;10667;51.056;3.732;2024-02-21T04:52:19;27.02;;;11.02;;
21018;SDS011;10667;51.056;3.732;2024-02-21T04:54:45;21.70;;;10.73;;
21018;SDS011;10667;51.056;3.732;2024-02-21T04:57:10;23.67;;;9.98;;
21018;SDS011;10667;51.056;3.732;2024-02-21T04:59:36;24.58;;;11.18;;
21018;SDS011;10667;51.056;3.732;2024-02-21T05:02:02;26.27;;;11.60;;
21018;SDS011;10667;51.056;3.732;2024-02-21T05:04:28;24.95;;;10.68;;
21018;SDS011;10667;51.056;3.732;2024-02-21T05:06:53;22.73;;;10.30;;
21018;SDS011;10667;51.056;3.732;2024-02-21T05:09:19;27.33;;;10.93;;
21018;SDS011;10667;51.056;3.732;2024-02-21T05:11:45;23.42;;;10.13;;
21018;SDS011;10667;51.056;3.732;2024-02-21T05:14:11;21.02;;;9.95;;
21018;SDS011;10667;51.056;3.732;2024-02-21T05:16:36;20.48;;;9.40;;
21018;SDS011;10667;51.056;3.732;2024-02-21T05:19:04;21.02;;;10.18;;
21018;SDS011;10667;51.056;3.732;2024-02-21T05:21:29;26.70;;;10.48;;
21018;SDS011;10667;51.056;3.732;2024-02-21T05:23:55;26.38;;;10.13;;
21018;SDS011;10667;51.056;3.732;2024-02-21T05:26:21;21.58;;;10.25;;
21018;SDS011;10667;51.056;3.732;2024-02-21T05:28:48;17.42;;;9.75;;
21018;SDS011;10667;51.056;3.732;2024-02-21T05:31:14;20.63;;;9.90;;
21018;SDS011;10667;51.056;3.732;2024-02-21T05:33:41;14.15;;;9.20;;
21018;SDS011;10667;51.056;3.732;2024-02-21T05:36:07;23.65;;;9.88;;
21018;SDS011;10667;51.056;3.732;2024-02-21T05:38:32;22.05;;;10.32;;
21018;SDS011;10667;51.056;3.732;2024-02-21T05:40:58;19.55;;;9.77;;
21018;SDS011;10667;51.056;3.732;2024-02-21T05:43:23;17.80;;;9.00;;
21018;SDS011;10667;51.056;3.732;2024-02-21T05:45:49;22.08;;;10.43;;
21018;SDS011;10667;51.056;3.732;2024-02-21T05:48:15;22.15;;;9.95;;
21018;SDS011;10667;51.056;3.732;2024-02-21T05:50:40;23.20;;;9.88;;
21018;SDS011;10667;51.056;3.732;2024-02-21T05:53:06;24.65;;;10.43;;
21018;SDS011;10667;51.056;3.732;2024-02-21T05:55:32;15.52;;;9.30;;
21018;SDS011;10667;51.056;3.732;2024-02-21T05:57:57;20.48;;;10.32;;
21018;SDS011;10667;51.056;3.732;2024-02-21T06:00:23;22.30;;;10.77;;
21018;SDS011;10667;51.056;3.732;2024-02-21T06:02:49;18.60;;;10.65;;
21018;SDS011;10667;51.056;3.732;2024-02-21T06:05:14;20.23;;;10.77;;
21018;SDS011;10667;51.056;3.732;2024-02-21T06:07:40;21.95;;;10.45;;
21018;SDS011;10667;51.056;3.732;2024-02-21T06:10:06;21.27;;;10.95;;
21018;SDS011;10667;51.056;3.732;2024-02-21T06:12:33;19.30;;;10.43;;
21018;SDS011;10667;51.056;3.732;2024-02-21T06:14:58;17.88;;;10.35;;
21018;SDS011;10667;51.056;3.732;2024-02-21T06:17:24;22.20;;;11.55;;
21018;SDS011;10667;51.056;3.732;2024-02-21T06:19:50;18.20;;;10.13;;
21018;SDS011;10667;51.056;3.732;2024-02-21T06:22:15;19.17;;;10.82;;
21018;SDS011;10667;51.056;3.732;2024-02-21T06:24:41;20.75;;;10.60;;
21018;SDS011;10667;51.056;3.732;2024-02-21T06:27:06;20.13;;;10.98;;
21018;SDS011;10667;51.056;3.732;2024-02-21T06:29:33;24.17;;;11.02;;
21018;SDS011;10667;51.056;3.732;2024-02-21T06:31:59;20.33;;;10.88;;
21018;SDS011;10667;51.056;3.732;2024-02-21T06:34:24;24.65;;;11.30;;
21018;SDS011;10667;51.056;3.732;2024-02-21T06:36:50;24.35;;;12.00;;
21018;SDS011;10667;51.056;3.732;2024-02-21T06:39:16;24.95;;;11.48;;
21018;SDS011;10667;51.056;3.732;2024-02-21T06:41:42;20.63;;;12.48;;
21018;SDS011;10667;51.056;3.732;2024-02-21T06:44:08;24.85;;;12.80;;
21018;SDS011;10667;51.056;3.732;2024-02-21T06:46:34;25.58;;;12.85;;
21018;SDS011;10667;51.056;3.732;2024-02-21T06:49:00;27.42;;;12.10;;
21018;SDS011;10667;51.056;3.732;2024-02-21T06:51:26;24.98;;;12.48;;
21018;SDS011;10667;51.056;3.732;2024-02-21T06:53:53;27.33;;;13.20;;
21018;SDS011;10667;51.056;3.732;2024-02-21T06:56:19;23.35;;;12.35;;
21018;SDS011;10667;51.056;3.732;2024-02-21T06:58:45;23.48;;;12.95;;
21018;SDS011;10667;51.056;3.732;2024-02-21T07:01:10;25.02;;;12.05;;
21018;SDS011;10667;51.056;3.732;2024-02-21T07:03:36;20.75;;;12.43;;
21018;SDS011;10667;51.056;3.732;2024-02-21T07:06:02;20.50;;;12.25;;
21018;SDS011;10667;51.056;3.732;2024-02-21T07:08:28;19.08;;;10.77;;
21018;SDS011;10667;51.056;3.732;2024-02-21T07:10:54;21.10;;;11.70;;
21018;SDS011;10667;51.056;3.732;2024-02-21T07:13:19;24.35;;;10.90;;
21018;SDS011;10667;51.056;3.732;2024-02-21T07:15:46;26.45;;;12.07;;
21018;SDS011;10667;51.056;3.732;2024-02-21T07:18:13;22.27;;;11.73;;
21018;SDS011;10667;51.056;3.732;2024-02-21T07:20:44;23.05;;;10.68;;
21018;SDS011;10667;51.056;3.732;2024-02-21T07:23:10;30.17;;;12.75;;
21018;SDS011;10667;51.056;3.732;2024-02-21T07:25:35;17.45;;;10.30;;
21018;SDS011;10667;51.056;3.732;2024-02-21T07:28:01;18.42;;;10.48;;
21018;SDS011;10667;51.056;3.732;2024-02-21T07:30:27;17.67;;;10.10;;
21018;SDS011;10667;51.056;3.732;2024-02-21T07:32:53;17.55;;;10.32;;
21018;SDS011;10667;51.056;3.732;2024-02-21T07:35:19;19.60;;;10.73;;
21018;SDS011;10667;51.056;3.732;2024-02-21T07:37:44;21.15;;;10.57;;
21018;SDS011;10667;51.056;3.732;2024-02-21T07:40:14;30.17;;;11.35;;
21018;SDS011;10667;51.056;3.732;2024-02-21T07:42:40;17.45;;;10.50;;
21018;SDS011;10667;51.056;3.732;2024-02-21T07:45:09;21.40;;;12.88;;
21018;SDS011;10667;51.056;3.732;2024-02-21T07:47:35;19.80;;;11.20;;
21018;SDS011;10667;51.056;3.732;2024-02-21T07:50:04;23.40;;;11.23;;
21018;SDS011;10667;51.056;3.732;2024-02-21T07:52:31;24.42;;;11.90;;
21018;SDS011;10667;51.056;3.732;2024-02-21T07:54:56;20.45;;;11.73;;
21018;SDS011;10667;51.056;3.732;2024-02-21T07:57:22;23.23;;;12.38;;
21018;SDS011;10667;51.056;3.732;2024-02-21T07:59:48;22.05;;;11.65;;
21018;SDS011;10667;51.056;3.732;2024-02-21T08:02:14;21.58;;;11.52;;
21018;SDS011;10667;51.056;3.732;2024-02-21T08:04:40;24.08;;;12.77;;
21018;SDS011;10667;51.056;3.732;2024-02-21T08:07:05;20.63;;;12.73;;
21018;SDS011;10667;51.056;3.732;2024-02-21T08:09:31;22.92;;;12.88;;
21018;SDS011;10667;51.056;3.732;2024-02-21T08:11:57;22.35;;;12.77;;
21018;SDS011;10667;51.056;3.732;2024-02-21T08:14:23;23.00;;;11.85;;
21018;SDS011;10667;51.056;3.732;2024-02-21T08:16:50;22.38;;;12.02;;
21018;SDS011;10667;51.056;3.732;2024-02-21T08:19:16;22.92;;;12.35;;
21018;SDS011;10667;51.056;3.732;2024-02-21T08:21:42;20.48;;;11.23;;
21018;SDS011;10667;51.056;3.732;2024-02-21T08:24:07;25.55;;;12.20;;
21018;SDS011;10667;51.056;3.732;2024-02-21T08:26:33;18.35;;;11.35;;
21018;SDS011;10667;51.056;3.732;2024-02-21T08:28:59;20.92;;;11.02;;
21018;SDS011;10667;51.056;3.732;2024-02-21T08:31:25;21.13;;;10.95;;
21018;SDS011;10667;51.056;3.732;2024-02-21T08:33:56;19.80;;;10.95;;
21018;SDS011;10667;51.056;3.732;2024-02-21T08:36:27;18.98;;;11.00;;
21018;SDS011;10667;51.056;3.732;2024-02-21T08:38:54;20.98;;;11.70;;
21018;SDS011;10667;51.056;3.732;2024-02-21T08:41:20;22.77;;;12.27;;
21018;SDS011;10667;51.056;3.732;2024-02-21T08:43:48;22.42;;;11.23;;
21018;SDS011;10667;51.056;3.732;2024-02-21T08:46:14;26.00;;;11.82;;
21018;SDS011;10667;51.056;3.732;2024-02-21T08:48:39;20.38;;;10.68;;
21018;SDS011;10667;51.056;3.732;2024-02-21T08:51:05;23.55;;;11.43;;
21018;SDS011;10667;51.056;3.732;2024-02-21T08:53:31;22.20;;;11.88;;
21018;SDS011;10667;51.056;3.732;2024-02-21T08:55:57;22.20;;;12.93;;
21018;SDS011;10667;51.056;3.732;2024-02-21T08:58:24;17.80;;;11.70;;
21018;SDS011;10667;51.056;3.732;2024-02-21T09:00:51;19.73;;;11.55;;
21018;SDS011;10667;51.056;3.732;2024-02-21T09:03:17;20.70;;;11.40;;
21018;SDS011;10667;51.056;3.732;2024-02-21T09:05:45;21.50;;;11.88;;
21018;SDS011;10667;51.056;3.732;2024-02-21T09:08:11;20.23;;;11.38;;
21018;SDS011;10667;51.056;3.732;2024-02-21T09:10:37;20.95;;;11.25;;
21018;SDS011;10667;51.056;3.732;2024-02-21T09:13:04;22.35;;;12.30;;
21018;SDS011;10667;51.056;3.732;2024-02-21T09:15:30;21.80;;;10.52;;
21018;SDS011;10667;51.056;3.732;2024-02-21T09:17:56;24.80;;;12.05;;
21018;SDS011;10667;51.056;3.732;2024-02-21T09:20:22;21.35;;;11.30;;
21018;SDS011;10667;51.056;3.732;2024-02-21T09:22:48;17.52;;;10.00;;
21018;SDS011;10667;51.056;3.732;2024-02-21T09:25:13;19.80;;;10.70;;
21018;SDS011;10667;51.056;3.732;2024-02-21T09:27:39;18.33;;;9.52;;
21018;SDS011;10667;51.056;3.732;2024-02-21T09:30:05;19.67;;;10.38;;
21018;SDS011;10667;51.056;3.732;2024-02-21T09:32:31;16.88;;;9.40;;
21018;SDS011;10667;51.056;3.732;2024-02-21T09:34:57;20.55;;;10.05;;
21018;SDS011;10667;51.056;3.732;2024-02-21T09:37:23;24.52;;;10.43;;
21018;SDS011;10667;51.056;3.732;2024-02-21T09:39:49;21.77;;;9.75;;
21018;SDS011;10667;51.056;3.732;2024-02-21T09:42:18;18.90;;;9.43;;
21018;SDS011;10667;51.056;3.732;2024-02-21T09:44:46;20.52;;;8.77;;
21018;SDS011;10667;51.056;3.732;2024-02-21T09:47:17;19.48;;;10.10;;
21018;SDS011;10667;51.056;3.732;2024-02-21T09:49:49;19.85;;;9.70;;
21018;SDS011;10667;51.056;3.732;2024-02-21T09:52:17;21.05;;;9.80;;
21018;SDS011;10667;51.056;3.732;2024-02-21T09:54:45;17.63;;;9.13;;
21018;SDS011;10667;51.056;3.732;2024-02-21T09:57:13;17.92;;;9.50;;
21018;SDS011;10667;51.056;3.732;2024-02-21T09:59:40;18.35;;;9.27;;
21018;SDS011;10667;51.056;3.732;2024-02-21T10:02:06;23.67;;;10.13;;
21018;SDS011;10667;51.056;3.732;2024-02-21T10:04:32;20.17;;;9.98;;
21018;SDS011;10667;51.056;3.732;2024-02-21T10:06:59;19.77;;;9.70;;
21018;SDS011;10667;51.056;3.732;2024-02-21T10:09:25;18.92;;;9.73;;
21018;SDS011;10667;51.056;3.732;2024-02-21T10:12:10;21.02;;;10.05;;
21018;SDS011;10667;51.056;3.732;2024-02-21T10:14:36;17.63;;;9.13;;
21018;SDS011;10667;51.056;3.732;2024-02-21T10:17:02;18.40;;;9.63;;
21018;SDS011;10667;51.056;3.732;2024-02-21T10:19:30;13.93;;;8.75;;
21018;SDS011;10667;51.056;3.732;2024-02-21T10:22:02;15.38;;;7.75;;
21018;SDS011;10667;51.056;3.732;2024-02-21T10:24:30;16.13;;;7.60;;
21018;SDS011;10667;51.056;3.732;2024-02-21T10:26:59;17.85;;;7.60;;
21018;SDS011;10667;51.056;3.732;2024-02-21T10:29:32;14.80;;;7.82;;
21018;SDS011;10667;51.056;3.732;2024-02-21T10:32:10;14.90;;;7.07;;
21018;SDS011;10667;51.056;3.732;2024-02-21T10:34:38;15.65;;;7.75;;
21018;SDS011;10667;51.056;3.732;2024-02-21T10:37:05;14.10;;;7.60;;
21018;SDS011;10667;51.056;3.732;2024-02-21T10:39:32;17.38;;;7.70;;
21018;SDS011;10667;51.056;3.732;2024-02-21T10:42:00;12.55;;;7.72;;
21018;SDS011;10667;51.056;3.732;2024-02-21T10:44:30;12.93;;;8.25;;
21018;SDS011;10667;51.056;3.732;2024-02-21T10:46:57;15.38;;;8.05;;
21018;SDS011;10667;51.056;3.732;2024-02-21T10:49:24;18.70;;;7.78;;
21018;SDS011;10667;51.056;3.732;2024-02-21T10:51:54;12.98;;;8.02;;
21018;SDS011;10667;51.056;3.732;2024-02-21T10:54:44;14.38;;;8.88;;
21018;SDS011;10667;51.056;3.732;2024-02-21T10:57:13;15.70;;;8.32;;
21018;SDS011;10667;51.056;3.732;2024-02-21T10:59:39;14.82;;;8.43;;
21018;SDS011;10667;51.056;3.732;2024-02-21T11:02:06;13.45;;;9.00;;
21018;SDS011;10667;51.056;3.732;2024-02-21T11:04:32;15.98;;;9.13;;
21018;SDS011;10667;51.056;3.732;2024-02-21T11:07:01;15.00;;;8.73;;
21018;SDS011;10667;51.056;3.732;2024-02-21T11:09:29;16.20;;;9.30;;
21018;SDS011;10667;51.056;3.732;2024-02-21T11:11:58;12.95;;;8.38;;
21018;SDS011;10667;51.056;3.732;2024-02-21T11:14:27;17.10;;;9.65;;
21018;SDS011;10667;51.056;3.732;2024-02-21T11:16:53;14.13;;;8.82;;
21018;SDS011;10667;51.056;3.732;2024-02-21T11:19:21;17.45;;;9.82;;
21018;SDS011;10667;51.056;3.732;2024-02-21T11:21:49;13.32;;;9.07;;
21018;SDS011;10667;51.056;3.732;2024-02-21T11:24:31;16.05;;;10.38;;
21018;SDS011;10667;51.056;3.732;2024-02-21T11:27:20;16.40;;;9.73;;
21018;SDS011;10667;51.056;3.732;2024-02-21T11:29:47;16.95;;;10.52;;
21018;SDS011;10667;51.056;3.732;2024-02-21T11:32:16;14.63;;;9.57;;
21018;SDS011;10667;51.056;3.732;2024-02-21T11:35:06;15.85;;;9.32;;
21018;SDS011;10667;51.056;3.732;2024-02-21T11:37:32;17.17;;;9.35;;
21018;SDS011;10667;51.056;3.732;2024-02-21T11:40:02;14.77;;;9.45;;
21018;SDS011;10667;51.056;3.732;2024-02-21T11:42:28;12.68;;;9.27;;
21018;SDS011;10667;51.056;3.732;2024-02-21T11:44:55;14.85;;;8.60;;
21018;SDS011;10667;51.056;3.732;2024-02-21T11:47:22;12.73;;;8.98;;
21018;SDS011;10667;51.056;3.732;2024-02-21T11:49:48;17.35;;;10.23;;
21018;SDS011;10667;51.056;3.732;2024-02-21T11:52:18;17.30;;;8.88;;
21018;SDS011;10667;51.056;3.732;2024-02-21T11:54:49;17.73;;;9.38;;
21018;SDS011;10667;51.056;3.732;2024-02-21T11:57:16;15.30;;;8.38;;
21018;SDS011;10667;51.056;3.732;2024-02-21T11:59:44;17.05;;;8.45;;
21018;SDS011;10667;51.056;3.732;2024-02-21T12:02:12;14.80;;;8.23;;
21018;SDS011;10667;51.056;3.732;2024-02-21T12:04:37;15.52;;;7.35;;
21018;SDS011;10667;51.056;3.732;2024-02-21T12:07:03;12.63;;;7.70;;
21018;SDS011;10667;51.056;3.732;2024-02-21T12:09:29;12.18;;;7.45;;
21018;SDS011;10667;51.056;3.732;2024-02-21T12:12:02;13.38;;;7.47;;
21018;SDS011;10667;51.056;3.732;2024-02-21T12:14:29;13.50;;;7.72;;
21018;SDS011;10667;51.056;3.732;2024-02-21T12:16:56;14.38;;;7.65;;
21018;SDS011;10667;51.056;3.732;2024-02-21T12:19:22;18.27;;;7.53;;
21018;SDS011;10667;51.056;3.732;2024-02-21T12:21:48;13.48;;;6.72;;
21018;SDS011;10667;51.056;3.732;2024-02-21T12:24:25;11.27;;;7.10;;
21018;SDS011;10667;51.056;3.732;2024-02-21T12:26:52;15.32;;;7.93;;
21018;SDS011;10667;51.056;3.732;2024-02-21T12:29:22;14.40;;;7.15;;
21018;SDS011;10667;51.056;3.732;2024-02-21T12:31:49;12.80;;;6.80;;
21018;SDS011;10667;51.056;3.732;2024-02-21T12:34:15;11.82;;;6.72;;
21018;SDS011;10667;51.056;3.732;2024-02-21T12:36:42;12.88;;;7.70;;
21018;SDS011;10667;51.056;3.732;2024-02-21T12:39:14;14.68;;;7.30;;
21018;SDS011;10667;51.056;3.732;2024-02-21T12:41:40;10.88;;;6.97;;
21018;SDS011;10667;51.056;3.732;2024-02-21T12:44:08;10.30;;;6.80;;
21018;SDS011;10667;51.056;3.732;2024-02-21T12:46:37;11.50;;;6.57;;
21018;SDS011;10667;51.056;3.732;2024-02-21T12:49:04;12.40;;;7.07;;
21018;SDS011;10667;51.056;3.732;2024-02-21T12:51:32;9.25;;;6.68;;
21018;SDS011;10667;51.056;3.732;2024-02-21T12:53:58;11.75;;;6.55;;
21018;SDS011;10667;51.056;3.732;2024-02-21T12:56:24;11.68;;;6.65;;
21018;SDS011;10667;51.056;3.732;2024-02-21T12:58:53;10.98;;;6.82;;
21018;SDS011;10667;51.056;3.732;2024-02-21T13:01:19;13.65;;;6.82;;
21018;SDS011;10667;51.056;3.732;2024-02-21T13:03:46;12.82;;;8.02;;
21018;SDS011;10667;51.056;3.732;2024-02-21T13:06:11;12.30;;;7.15;;
21018;SDS011;10667;51.056;3.732;2024-02-21T13:08:38;13.02;;;6.68;;
21018;SDS011;10667;51.056;3.732;2024-02-21T13:11:04;13.00;;;7.82;;
21018;SDS011;10667;51.056;3.732;2024-02-21T13:13:30;9.48;;;7.88;;
21018;SDS011;10667;51.056;3.732;2024-02-21T13:15:57;19.00;;;8.63;;
21018;SDS011;10667;51.056;3.732;2024-02-21T13:18:23;10.77;;;8.40;;
21018;SDS011;10667;51.056;3.732;2024-02-21T13:20:48;13.13;;;7.85;;
21018;SDS011;10667;51.056;3.732;2024-02-21T13:23:14;19.05;;;8.60;;
21018;SDS011;10667;51.056;3.732;2024-02-21T13:25:40;11.38;;;7.85;;
21018;SDS011;10667;51.056;3.732;2024-02-21T13:28:06;14.13;;;7.80;;
21018;SDS011;10667;51.056;3.732;2024-02-21T13:30:32;12.00;;;8.07;;
21018;SDS011;10667;51.056;3.732;2024-02-21T13:32:58;14.35;;;7.18;;
21018;SDS011;10667;51.056;3.732;2024-02-21T13:35:23;15.70;;;7.53;;
21018;SDS011;10667;51.056;3.732;2024-02-21T13:37:49;10.80;;;6.93;;
21018;SDS011;10667;51.056;3.732;2024-02-21T13:40:15;10.10;;;6.82;;
21018;SDS011;10667;51.056;3.732;2024-02-21T13:42:41;11.57;;;7.20;;
21018;SDS011;10667;51.056;3.732;2024-02-21T13:45:08;12.43;;;7.57;;
21018;SDS011;10667;51.056;3.732;2024-02-21T13:47:34;15.90;;;7.32;;
21018;SDS011;10667;51.056;3.732;2024-02-21T13:50:01;12.43;;;6.88;;
21018;SDS011;10667;51.056;3.732;2024-02-21T13:52:29;17.38;;;7.15;;
21018;SDS011;10667;51.056;3.732;2024-02-21T13:54:56;10.40;;;6.93;;
21018;SDS011;10667;51.056;3.732;2024-02-21T13:57:22;12.23;;;7.72;;
21018;SDS011;10667;51.056;3.732;2024-02-21T13:59:48;14.98;;;7.45;;
21018;SDS011;10667;51.056;3.732;2024-02-21T14:02:13;11.70;;;7.10;;
21018;SDS011;10667;51.056;3.732;2024-02-21T14:04:39;14.52;;;7.22;;
21018;SDS011;10667;51.056;3.732;2024-02-21T14:07:05;11.48;;;7.05;;
21018;SDS011;10667;51.056;3.732;2024-02-21T14:09:30;12.48;;;7.15;;
21018;SDS011;10667;51.056;3.732;2024-02-21T14:11:58;11.15;;;6.18;;
21018;SDS011;10667;51.056;3.732;2024-02-21T14:14:23;11.32;;;7.40;;
21018;SDS011;10667;51.056;3.732;2024-02-21T14:16:49;15.70;;;7.47;;
21018;SDS011;10667;51.056;3.732;2024-02-21T14:19:15;16.70;;;6.65;;
21018;SDS011;10667;51.056;3.732;2024-02-21T14:21:40;11.25;;;7.25;;
21018;SDS011;10667;51.056;3.732;2024-02-21T14:24:06;13.25;;;7.32;;
21018;SDS011;10667;51.056;3.732;2024-02-21T14:26:33;11.30;;;6.97;;